createdAt,value
2022-11-16T00:01:03.453Z,18.60
2022-11-16T00:02:14.919Z,17.98
2022-11-16T00:03:26.481Z,22.70
2022-11-16T00:04:38.060Z,22.73
2022-11-16T00:05:49.529Z,27.15
2022-11-16T00:07:02.884Z,19.48
2022-11-16T00:08:14.370Z,23.45
2022-11-16T00:09:28.757Z,23.15
2022-11-16T00:10:42.529Z,23.70
2022-11-16T00:11:58.210Z,23.63
2022-11-16T00:13:09.626Z,22.80
2022-11-16T00:14:22.341Z,26.80
2022-11-16T00:15:33.813Z,28.10
2022-11-16T00:16:45.276Z,22.45
2022-11-16T00:17:56.726Z,23.92
2022-11-16T00:19:08.335Z,26.13
2022-11-16T00:20:19.829Z,21.63
2022-11-16T00:21:31.562Z,30.02
2022-11-16T00:22:43.013Z,30.25
2022-11-16T00:23:54.716Z,33.30
2022-11-16T00:25:06.495Z,30.75
2022-11-16T00:26:18.025Z,26.60
2022-11-16T00:27:29.420Z,26.50
2022-11-16T00:28:40.876Z,31.92
2022-11-16T00:29:52.315Z,36.88
2022-11-16T00:31:04.820Z,30.92
2022-11-16T00:32:16.264Z,36.83
2022-11-16T00:33:27.966Z,35.90
2022-11-16T00:34:40.056Z,34.63
2022-11-16T00:35:51.528Z,29.90
2022-11-16T00:37:03.047Z,37.92
2022-11-16T00:38:14.528Z,29.05
2022-11-16T00:39:25.928Z,25.20
2022-11-16T00:40:37.331Z,23.52
2022-11-16T00:41:48.940Z,24.45
2022-11-16T00:43:00.394Z,23.50
2022-11-16T00:44:11.993Z,22.92
2022-11-16T00:45:23.417Z,32.38
2022-11-16T00:46:34.874Z,22.58
2022-11-16T00:47:46.310Z,29.10
2022-11-16T00:48:57.726Z,21.70
2022-11-16T00:50:09.268Z,22.70
2022-11-16T00:51:20.736Z,28.05
2022-11-16T00:52:32.397Z,26.00
2022-11-16T00:53:43.799Z,22.90
2022-11-16T00:54:55.244Z,27.23
2022-11-16T00:56:06.793Z,19.15
2022-11-16T00:57:18.218Z,28.67
2022-11-16T00:58:29.755Z,24.73
2022-11-16T00:59:41.210Z,23.00
2022-11-16T01:00:52.677Z,23.95
2022-11-16T01:02:04.153Z,21.80
2022-11-16T01:03:15.572Z,21.35
2022-11-16T01:04:27.021Z,26.33
2022-11-16T01:05:38.914Z,22.48
2022-11-16T01:06:53.056Z,26.20
2022-11-16T01:08:04.725Z,25.13
2022-11-16T01:09:16.127Z,26.27
2022-11-16T01:10:28.191Z,32.53
2022-11-16T01:11:58.061Z,37.97
2022-11-16T01:13:10.567Z,29.58
2022-11-16T01:14:22.144Z,35.53
2022-11-16T01:15:33.813Z,28.80
2022-11-16T01:16:45.276Z,26.38
2022-11-16T01:17:57.002Z,31.13
2022-11-16T01:19:10.475Z,34.38
2022-11-16T01:20:22.969Z,23.17
2022-11-16T01:21:34.580Z,34.92
2022-11-16T01:22:46.162Z,28.27
2022-11-16T01:23:57.625Z,31.92
2022-11-16T01:25:09.921Z,32.22
2022-11-16T01:26:21.384Z,26.63
2022-11-16T01:27:33.109Z,27.63
2022-11-16T01:28:44.651Z,29.13
2022-11-16T01:29:56.412Z,30.35
2022-11-16T01:31:08.447Z,30.00
2022-11-16T01:32:19.956Z,46.33
2022-11-16T01:33:31.388Z,28.17
2022-11-16T01:34:42.851Z,27.42
2022-11-16T01:35:54.270Z,36.92
2022-11-16T01:37:05.733Z,30.35
2022-11-16T01:38:17.507Z,30.30
2022-11-16T01:39:28.959Z,32.72
2022-11-16T01:40:40.651Z,27.10
2022-11-16T01:41:52.070Z,25.13
2022-11-16T01:43:03.573Z,28.55
2022-11-16T01:44:14.963Z,31.58
2022-11-16T01:45:34.156Z,29.35
2022-11-16T01:46:45.559Z,23.83
2022-11-16T01:47:57.037Z,29.58
2022-11-16T01:49:10.738Z,29.50
2022-11-16T01:50:22.591Z,28.40
2022-11-16T01:51:34.769Z,27.60
2022-11-16T01:52:48.699Z,34.25
2022-11-16T01:54:01.606Z,34.42
2022-11-16T01:55:13.262Z,27.73
2022-11-16T01:56:24.833Z,26.05
2022-11-16T01:57:38.132Z,24.77
2022-11-16T01:58:49.760Z,27.55
2022-11-16T02:00:02.143Z,25.95
2022-11-16T02:01:13.867Z,28.23
2022-11-16T02:02:25.361Z,32.50
2022-11-16T02:03:37.558Z,28.55
2022-11-16T02:04:49.467Z,25.67
2022-11-16T02:06:07.220Z,26.00
2022-11-16T02:07:21.714Z,23.88
2022-11-16T02:08:54.658Z,30.50
2022-11-16T02:10:21.069Z,28.70
2022-11-16T02:11:41.484Z,21.90
2022-11-16T02:12:53.322Z,21.17
2022-11-16T02:14:23.237Z,22.73
2022-11-16T02:15:38.606Z,25.90
2022-11-16T02:16:51.740Z,21.98
2022-11-16T02:18:12.120Z,26.17
2022-11-16T02:19:35.690Z,25.60
2022-11-16T02:20:50.165Z,32.58
2022-11-16T02:22:19.110Z,30.60
2022-11-16T02:23:33.679Z,27.55
2022-11-16T02:24:45.216Z,28.17
2022-11-16T02:25:56.610Z,29.25
2022-11-16T02:27:08.033Z,27.42
2022-11-16T02:28:32.573Z,24.88
2022-11-16T02:29:46.143Z,27.52
2022-11-16T02:31:00.571Z,32.50
2022-11-16T02:32:17.488Z,27.35
2022-11-16T02:33:33.874Z,24.10
2022-11-16T02:34:48.748Z,23.80
2022-11-16T02:36:04.762Z,29.50
2022-11-16T02:37:18.625Z,25.55
2022-11-16T02:38:32.519Z,36.72
2022-11-16T02:39:45.765Z,37.53
2022-11-16T02:40:58.921Z,30.15
2022-11-16T02:42:11.726Z,49.05
2022-11-16T02:43:28.392Z,37.92
2022-11-16T02:44:43.800Z,38.20
2022-11-16T02:45:57.111Z,29.13
2022-11-16T02:47:11.485Z,29.23
2022-11-16T02:48:26.140Z,36.65
2022-11-16T02:49:40.492Z,32.75
2022-11-16T02:50:55.162Z,38.53
2022-11-16T02:52:07.189Z,46.83
2022-11-16T02:53:20.617Z,39.53
2022-11-16T02:54:32.088Z,33.25
2022-11-16T02:55:43.492Z,37.75
2022-11-16T02:57:17.804Z,35.13
2022-11-16T02:58:29.348Z,24.45
2022-11-16T02:59:46.609Z,26.38
2022-11-16T03:01:07.874Z,24.70
2022-11-16T03:02:33.113Z,28.80
2022-11-16T03:03:57.946Z,26.75
2022-11-16T03:05:17.881Z,27.88
2022-11-16T03:06:31.534Z,25.25
2022-11-16T03:07:53.309Z,23.25
2022-11-16T03:09:07.388Z,35.63
2022-11-16T03:10:39.241Z,24.38
2022-11-16T03:12:02.777Z,29.30
2022-11-16T03:13:15.806Z,26.85
2022-11-16T03:14:33.046Z,33.40
2022-11-16T03:15:46.915Z,29.63
2022-11-16T03:16:58.713Z,22.88
2022-11-16T03:18:10.405Z,26.25
2022-11-16T03:19:23.807Z,32.53
2022-11-16T03:20:36.983Z,31.10
2022-11-16T03:21:48.428Z,26.73
2022-11-16T03:23:01.721Z,23.23
2022-11-16T03:24:13.720Z,25.95
2022-11-16T03:25:26.924Z,26.60
2022-11-16T03:26:46.764Z,24.90
2022-11-16T03:28:01.351Z,26.13
2022-11-16T03:29:33.053Z,24.92
2022-11-16T03:30:49.656Z,23.55
2022-11-16T03:32:07.057Z,34.42
2022-11-16T03:33:22.516Z,25.83
2022-11-16T03:34:35.862Z,32.35
2022-11-16T03:35:53.281Z,25.27
2022-11-16T03:37:06.015Z,23.02
2022-11-16T03:38:18.608Z,27.23
2022-11-16T03:39:31.855Z,25.83
2022-11-16T03:40:44.872Z,27.50
2022-11-16T03:41:57.738Z,26.08
2022-11-16T03:43:10.085Z,23.00
2022-11-16T03:44:21.729Z,26.60
2022-11-16T03:45:33.377Z,26.02
2022-11-16T03:46:45.498Z,29.27
2022-11-16T03:47:57.003Z,70.45
2022-11-16T03:49:08.510Z,95.22
2022-11-16T03:50:19.985Z,48.85
2022-11-16T03:51:31.426Z,41.00
2022-11-16T03:52:42.898Z,31.67
2022-11-16T03:53:54.368Z,24.77
2022-11-16T03:55:05.934Z,25.85
2022-11-16T03:56:17.401Z,31.75
2022-11-16T03:57:28.812Z,28.95
2022-11-16T03:58:40.249Z,49.63
2022-11-16T03:59:51.715Z,38.90
2022-11-16T04:01:03.652Z,27.00
2022-11-16T04:02:15.260Z,47.13
2022-11-16T04:03:26.657Z,42.47
2022-11-16T04:04:56.837Z,29.83
2022-11-16T04:06:28.098Z,24.65
2022-11-16T04:07:57.907Z,26.15
2022-11-16T04:09:28.167Z,28.30
2022-11-16T04:10:58.164Z,25.88
2022-11-16T04:12:28.284Z,27.38
2022-11-16T04:13:58.626Z,52.10
2022-11-16T04:15:28.964Z,59.35
2022-11-16T04:16:58.629Z,46.35
2022-11-16T04:18:29.047Z,24.90
2022-11-16T04:19:58.888Z,62.33
2022-11-16T04:21:35.951Z,68.85
2022-11-16T04:23:25.579Z,58.47
2022-11-16T04:24:38.248Z,50.78
2022-11-16T04:25:50.346Z,41.17
2022-11-16T04:27:21.655Z,44.88
2022-11-16T04:28:34.183Z,46.25
2022-11-16T04:29:46.065Z,35.40
2022-11-16T04:31:17.395Z,41.75
2022-11-16T04:32:47.884Z,33.83
2022-11-16T04:34:17.965Z,33.15
2022-11-16T04:35:47.820Z,27.92
2022-11-16T04:37:17.563Z,29.55
2022-11-16T04:38:29.151Z,27.27
2022-11-16T04:39:40.603Z,33.30
2022-11-16T04:40:52.232Z,30.27
2022-11-16T04:42:15.611Z,35.65
2022-11-16T04:43:27.059Z,28.15
2022-11-16T04:44:56.886Z,32.55
2022-11-16T04:46:26.560Z,28.48
2022-11-16T04:47:38.026Z,34.45
2022-11-16T04:48:49.431Z,40.53
2022-11-16T04:50:00.849Z,36.88
2022-11-16T04:51:12.329Z,33.53
2022-11-16T04:52:23.820Z,29.27
2022-11-16T04:53:35.208Z,30.23
2022-11-16T04:54:46.657Z,33.03
2022-11-16T04:56:00.927Z,27.20
2022-11-16T04:57:12.518Z,30.02
2022-11-16T04:58:23.988Z,28.85
2022-11-16T04:59:35.455Z,26.45
2022-11-16T05:00:46.910Z,30.63
2022-11-16T05:02:10.205Z,30.05
2022-11-16T05:03:21.656Z,35.35
2022-11-16T05:04:33.141Z,38.65
2022-11-16T05:05:44.557Z,40.72
2022-11-16T05:06:56.054Z,32.97
2022-11-16T05:08:09.201Z,45.80
2022-11-16T05:09:20.973Z,56.35
2022-11-16T05:10:32.415Z,51.95
2022-11-16T05:11:43.829Z,67.30
2022-11-16T05:12:55.225Z,73.20
2022-11-16T05:14:07.070Z,75.15
2022-11-16T05:15:19.881Z,53.88
2022-11-16T05:16:31.616Z,62.25
2022-11-16T05:17:43.068Z,55.08
2022-11-16T05:19:13.129Z,61.72
2022-11-16T05:20:43.332Z,38.33
2022-11-16T05:21:54.774Z,52.45
2022-11-16T05:23:26.212Z,60.60
2022-11-16T05:24:37.672Z,53.50
2022-11-16T05:25:49.092Z,52.22
2022-11-16T05:27:05.198Z,42.33
2022-11-16T05:28:16.645Z,45.10
2022-11-16T05:29:28.104Z,43.40
2022-11-16T05:30:39.541Z,41.20
2022-11-16T05:31:50.991Z,38.42
2022-11-16T05:33:02.420Z,42.05
2022-11-16T05:34:14.005Z,39.05
2022-11-16T05:35:25.477Z,50.15
2022-11-16T05:36:36.954Z,46.47
2022-11-16T05:37:48.427Z,39.47
2022-11-16T05:38:59.882Z,40.80
2022-11-16T05:40:11.846Z,54.47
2022-11-16T05:41:23.288Z,43.97
2022-11-16T05:42:34.741Z,53.63
2022-11-16T05:43:46.197Z,53.67
2022-11-16T05:44:57.765Z,52.00
2022-11-16T05:46:09.170Z,45.63
2022-11-16T05:47:20.673Z,54.90
2022-11-16T05:48:32.481Z,47.13
2022-11-16T05:49:44.196Z,41.42
2022-11-16T05:50:59.420Z,51.00
2022-11-16T05:52:13.616Z,38.72
2022-11-16T05:53:25.148Z,43.25
2022-11-16T05:54:36.598Z,45.92
2022-11-16T05:55:48.076Z,47.22
2022-11-16T05:56:59.519Z,52.17
2022-11-16T05:58:10.991Z,52.10
2022-11-16T05:59:23.515Z,55.20
2022-11-16T06:00:35.017Z,49.85
2022-11-16T06:01:47.124Z,44.13
2022-11-16T06:02:58.689Z,57.30
2022-11-16T06:04:10.569Z,43.47
2022-11-16T06:05:22.057Z,48.13
2022-11-16T06:06:33.519Z,49.25
2022-11-16T06:07:44.963Z,50.90
2022-11-16T06:08:56.435Z,49.28
2022-11-16T06:10:07.973Z,48.30
2022-11-16T06:11:19.711Z,49.00
2022-11-16T06:12:31.159Z,66.35
2022-11-16T06:13:42.630Z,96.18
2022-11-16T06:14:54.068Z,57.90
2022-11-16T06:16:05.980Z,38.20
2022-11-16T06:17:17.450Z,34.60
2022-11-16T06:18:28.966Z,29.75
2022-11-16T06:19:40.949Z,36.63
2022-11-16T06:20:52.680Z,37.08
2022-11-16T06:22:04.094Z,41.58
2022-11-16T06:23:15.502Z,40.83
2022-11-16T06:24:26.984Z,36.95
2022-11-16T06:25:38.946Z,39.90
2022-11-16T06:26:50.440Z,40.75
2022-11-16T06:28:06.590Z,41.72
2022-11-16T06:29:19.295Z,39.40
2022-11-16T06:30:30.703Z,32.50
2022-11-16T06:31:42.130Z,36.80
2022-11-16T06:32:53.580Z,33.25
2022-11-16T06:34:05.034Z,33.35
2022-11-16T06:35:16.518Z,42.83
2022-11-16T06:36:27.966Z,32.33
2022-11-16T06:37:39.434Z,38.22
2022-11-16T06:38:51.024Z,39.60
2022-11-16T06:40:05.097Z,48.58
2022-11-16T06:41:16.578Z,37.88
2022-11-16T06:42:28.006Z,50.95
2022-11-16T06:43:39.442Z,48.88
2022-11-16T06:44:50.917Z,46.95
2022-11-16T06:46:02.398Z,49.17
2022-11-16T06:47:13.885Z,44.17
2022-11-16T06:48:25.608Z,41.55
2022-11-16T06:49:39.281Z,46.97
2022-11-16T06:50:52.015Z,36.67
2022-11-16T06:52:03.545Z,47.85
2022-11-16T06:53:15.030Z,42.38
2022-11-16T06:54:35.143Z,51.03
2022-11-16T06:55:46.546Z,47.22
2022-11-16T06:56:58.048Z,43.92
2022-11-16T06:58:09.521Z,40.60
2022-11-16T06:59:20.972Z,42.83
2022-11-16T07:00:32.571Z,47.65
2022-11-16T07:01:44.126Z,52.50
2022-11-16T07:02:55.612Z,68.80
2022-11-16T07:04:11.857Z,61.15
2022-11-16T07:05:23.337Z,47.85
2022-11-16T07:06:34.753Z,57.17
2022-11-16T07:07:46.364Z,50.47
2022-11-16T07:08:57.848Z,51.78
2022-11-16T07:10:09.570Z,46.75
2022-11-16T07:11:20.986Z,56.40
2022-11-16T07:12:32.448Z,53.60
2022-11-16T07:13:43.892Z,52.25
2022-11-16T07:14:55.310Z,47.85
2022-11-16T07:16:10.682Z,48.92
2022-11-16T07:17:22.173Z,45.15
2022-11-16T07:18:35.271Z,39.08
2022-11-16T07:19:47.021Z,44.20
2022-11-16T07:20:58.485Z,33.97
2022-11-16T07:22:09.928Z,31.98
2022-11-16T07:23:21.343Z,37.83
2022-11-16T07:24:32.953Z,31.25
2022-11-16T07:25:48.663Z,23.83
2022-11-16T07:27:00.119Z,31.60
2022-11-16T07:28:11.679Z,30.05
2022-11-16T07:29:23.158Z,32.13
2022-11-16T07:30:34.596Z,26.63
2022-11-16T07:31:46.037Z,29.52
2022-11-16T07:32:58.679Z,25.05
2022-11-16T07:34:10.121Z,25.05
2022-11-16T07:35:21.622Z,29.05
2022-11-16T07:36:33.064Z,32.25
2022-11-16T07:37:44.560Z,19.70
2022-11-16T07:38:56.211Z,31.08
2022-11-16T07:40:08.156Z,32.22
2022-11-16T07:41:19.861Z,26.73
2022-11-16T07:42:31.276Z,30.30
2022-11-16T07:43:42.758Z,25.88
2022-11-16T07:44:54.295Z,26.52
2022-11-16T07:46:44.738Z,24.52
2022-11-16T07:47:41.302Z,23.75
2022-11-16T07:48:53.079Z,57.42
2022-11-16T07:50:05.310Z,64.20
2022-11-16T07:51:17.754Z,38.60
2022-11-16T07:52:29.273Z,30.40
2022-11-16T07:53:41.354Z,32.00
2022-11-16T07:54:52.805Z,30.05
2022-11-16T07:56:04.834Z,25.08
2022-11-16T07:57:16.338Z,32.90
2022-11-16T07:58:28.437Z,32.45
2022-11-16T07:59:40.164Z,31.27
2022-11-16T08:00:51.663Z,32.13
2022-11-16T08:02:03.323Z,32.17
2022-11-16T08:03:16.474Z,30.67
2022-11-16T08:04:29.681Z,35.97
2022-11-16T08:05:41.150Z,34.38
2022-11-16T08:06:52.747Z,35.53
2022-11-16T08:08:04.300Z,38.30
2022-11-16T08:09:15.821Z,38.03
2022-11-16T08:10:27.440Z,34.53
2022-11-16T08:11:38.898Z,26.02
2022-11-16T08:12:50.342Z,30.98
2022-11-16T08:14:01.803Z,29.30
2022-11-16T08:15:14.181Z,31.27
2022-11-16T08:16:25.652Z,28.00
2022-11-16T08:17:37.114Z,28.13
2022-11-16T08:18:48.803Z,23.60
2022-11-16T08:20:00.237Z,29.02
2022-11-16T08:21:13.891Z,23.88
2022-11-16T08:22:28.565Z,26.40
2022-11-16T08:23:40.562Z,27.67
2022-11-16T08:24:52.069Z,24.65
2022-11-16T08:26:07.917Z,44.78
2022-11-16T08:27:19.387Z,36.80
2022-11-16T08:28:31.226Z,34.78
2022-11-16T08:29:43.037Z,26.20
2022-11-16T08:30:54.529Z,23.35
2022-11-16T08:32:08.377Z,36.58
2022-11-16T08:33:21.386Z,23.65
2022-11-16T08:34:33.476Z,27.98
2022-11-16T08:35:45.211Z,30.40
2022-11-16T08:36:56.667Z,31.88
2022-11-16T08:38:08.096Z,30.42
2022-11-16T08:39:19.559Z,24.90
2022-11-16T08:40:30.983Z,32.17
2022-11-16T08:41:44.319Z,25.23
2022-11-16T08:42:58.410Z,29.38
2022-11-16T08:44:10.106Z,29.90
2022-11-16T08:45:23.622Z,22.70
2022-11-16T08:46:35.072Z,27.05
2022-11-16T08:47:46.544Z,21.38
2022-11-16T08:48:58.071Z,18.25
2022-11-16T08:53:07.356Z,41.65
2022-11-16T08:54:18.816Z,24.17
2022-11-16T08:55:30.280Z,20.92
2022-11-16T08:56:41.715Z,24.77
2022-11-16T08:57:53.157Z,27.45
2022-11-16T08:59:04.661Z,20.35
2022-11-16T09:00:16.470Z,27.05
2022-11-16T09:01:29.372Z,22.27
2022-11-16T09:02:40.940Z,19.50
2022-11-16T09:03:53.004Z,20.92
2022-11-16T09:05:05.282Z,19.08
2022-11-16T09:06:17.076Z,23.58
2022-11-16T09:07:28.678Z,21.02
2022-11-16T09:08:41.489Z,21.17
2022-11-16T09:09:52.884Z,21.98
2022-11-16T09:11:08.494Z,25.30
2022-11-16T09:15:19.493Z,21.67
2022-11-16T09:16:30.890Z,18.98
2022-11-16T09:17:42.354Z,20.83
2022-11-16T09:18:53.928Z,18.13
2022-11-16T09:20:05.742Z,21.13
2022-11-16T09:21:21.149Z,18.70
2022-11-16T09:22:32.733Z,21.17
2022-11-16T09:23:44.205Z,29.15
2022-11-16T09:24:55.625Z,56.58
2022-11-16T09:26:07.090Z,36.80
2022-11-16T09:27:18.516Z,37.95
2022-11-16T09:28:29.941Z,31.30
2022-11-16T09:29:41.430Z,43.78
2022-11-16T09:30:52.865Z,44.88
2022-11-16T09:32:06.785Z,32.65
2022-11-16T09:33:18.428Z,39.75
2022-11-16T09:34:29.839Z,43.05
2022-11-16T09:35:41.257Z,34.03
2022-11-16T09:36:52.680Z,28.00
2022-11-16T09:38:04.137Z,22.25
2022-11-16T09:39:32.046Z,21.05
2022-11-16T09:42:24.353Z,21.27
2022-11-16T09:43:45.346Z,17.05
2022-11-16T09:45:07.866Z,21.88
2022-11-16T09:46:37.734Z,25.25
2022-11-16T09:47:51.758Z,19.20
2022-11-16T09:49:10.485Z,24.90
2022-11-16T09:50:34.130Z,18.48
2022-11-16T09:51:47.533Z,18.13
2022-11-16T09:53:22.313Z,20.30
2022-11-16T09:54:35.549Z,17.83
2022-11-16T09:55:49.043Z,18.73
2022-11-16T09:57:12.060Z,19.90
2022-11-16T09:58:27.815Z,20.08
2022-11-16T09:59:44.482Z,20.08
2022-11-16T10:00:58.923Z,21.08
2022-11-16T10:02:22.418Z,18.60
2022-11-16T10:03:38.337Z,21.85
2022-11-16T10:05:00.396Z,20.85
2022-11-16T10:06:18.546Z,23.35
2022-11-16T10:07:56.398Z,21.75
2022-11-16T10:09:11.066Z,32.03
2022-11-16T10:10:30.274Z,29.60
2022-11-16T10:11:49.644Z,46.55
2022-11-16T10:13:14.618Z,26.85
2022-11-16T10:14:35.681Z,16.67
2022-11-16T10:15:55.315Z,19.25
2022-11-16T10:17:20.041Z,22.63
2022-11-16T10:18:52.485Z,20.35
2022-11-16T10:20:23.084Z,22.73
2022-11-16T10:21:49.668Z,22.92
2022-11-16T10:23:24.417Z,25.75
2022-11-16T10:24:50.938Z,18.10
2022-11-16T10:26:11.641Z,18.70
2022-11-16T10:27:23.168Z,21.15
2022-11-16T10:28:53.056Z,19.15
2022-11-16T10:30:12.535Z,18.70
2022-11-16T10:31:23.960Z,17.48
2022-11-16T10:32:55.180Z,17.90
2022-11-16T10:34:07.365Z,20.80
2022-11-16T10:35:22.700Z,18.90
2022-11-16T10:36:37.146Z,19.48
2022-11-16T10:37:49.689Z,14.52
2022-11-16T10:39:01.340Z,16.95
2022-11-16T10:40:16.692Z,21.80
2022-11-16T10:41:41.672Z,16.60
2022-11-16T10:43:01.218Z,18.50
2022-11-16T10:44:17.838Z,21.63
2022-11-16T10:45:35.145Z,36.90
2022-11-16T10:46:55.290Z,21.08
2022-11-16T10:48:19.661Z,19.70
2022-11-16T10:49:46.685Z,19.67
2022-11-16T10:50:58.265Z,18.30
2022-11-16T10:52:09.761Z,22.52
2022-11-16T10:53:40.394Z,21.70
2022-11-16T10:54:52.147Z,18.63
2022-11-16T10:56:20.039Z,25.08
2022-11-16T10:57:51.674Z,42.40
2022-11-16T10:59:03.104Z,46.53
2022-11-16T11:00:32.170Z,20.15
2022-11-16T11:01:46.419Z,20.30
2022-11-16T11:02:57.831Z,21.48
2022-11-16T11:04:21.265Z,16.08
2022-11-16T11:05:34.226Z,16.50
2022-11-16T11:06:49.201Z,18.55
2022-11-16T11:08:02.751Z,19.10
2022-11-16T11:09:15.477Z,15.75
2022-11-16T11:10:28.768Z,18.27
2022-11-16T11:11:58.654Z,22.35
2022-11-16T11:13:10.061Z,28.52
2022-11-16T11:14:21.500Z,31.30
2022-11-16T11:15:33.411Z,27.58
2022-11-16T11:16:44.837Z,27.20
2022-11-16T11:18:15.032Z,21.88
2022-11-16T11:19:27.972Z,16.38
2022-11-16T11:20:44.713Z,16.80
2022-11-16T11:22:00.113Z,20.45
2022-11-16T11:23:16.023Z,16.92
2022-11-16T11:24:45.336Z,18.13
2022-11-16T11:25:57.117Z,15.27
2022-11-16T11:27:08.610Z,20.83
2022-11-16T11:28:22.897Z,19.33
2022-11-16T11:29:39.050Z,20.48
2022-11-16T11:30:53.251Z,17.95
2022-11-16T11:32:05.971Z,17.90
2022-11-16T11:33:18.725Z,20.85
2022-11-16T11:34:32.646Z,19.10
2022-11-16T11:35:44.306Z,17.73
2022-11-16T11:36:57.964Z,15.75
2022-11-16T11:38:13.689Z,17.98
2022-11-16T11:39:27.479Z,21.38
2022-11-16T11:40:39.035Z,17.08
2022-11-16T11:42:02.749Z,22.02
2022-11-16T11:43:25.213Z,18.65
2022-11-16T11:44:57.318Z,18.38
2022-11-16T11:46:15.405Z,23.65
2022-11-16T11:49:10.328Z,28.95
2022-11-16T11:50:21.930Z,24.17
2022-11-16T11:51:35.125Z,35.53
2022-11-16T11:52:47.774Z,28.08
2022-11-16T11:54:00.699Z,36.22
2022-11-16T11:55:19.040Z,19.77
2022-11-16T11:56:31.977Z,49.65
2022-11-16T11:57:46.261Z,60.38
2022-11-16T11:58:57.781Z,160.45
2022-11-16T12:00:12.845Z,42.40
2022-11-16T12:01:38.662Z,76.57
2022-11-16T12:02:52.783Z,56.40
2022-11-16T12:04:16.554Z,74.53
2022-11-16T12:05:54.452Z,35.78
2022-11-16T12:07:14.899Z,30.35
2022-11-16T12:08:29.253Z,21.83
2022-11-16T12:09:49.051Z,46.22
2022-11-16T12:11:03.505Z,22.42
2022-11-16T12:12:33.294Z,20.35
2022-11-16T12:13:57.916Z,24.58
2022-11-16T12:15:21.644Z,16.65
2022-11-16T12:16:46.094Z,19.55
2022-11-16T12:18:03.389Z,22.77
2022-11-16T12:19:17.143Z,27.88
2022-11-16T12:20:57.836Z,30.30
2022-11-16T12:22:21.531Z,31.15
2022-11-16T12:23:44.927Z,20.83
2022-11-16T12:24:59.386Z,27.27
2022-11-16T12:26:29.579Z,19.48
2022-11-16T12:27:54.605Z,17.58
2022-11-16T12:29:25.729Z,19.65
2022-11-16T12:30:57.404Z,23.90
2022-11-16T12:32:09.097Z,28.10
2022-11-16T12:33:22.675Z,22.90
2022-11-16T12:34:52.604Z,19.75
2022-11-16T12:36:07.099Z,16.20
2022-11-16T12:37:19.625Z,21.47
2022-11-16T12:38:51.833Z,20.88
2022-11-16T12:40:15.533Z,23.67
2022-11-16T12:41:26.919Z,22.92
2022-11-16T12:42:50.720Z,23.38
2022-11-16T12:44:06.499Z,22.55
2022-11-16T12:45:18.477Z,23.52
2022-11-16T12:46:32.998Z,35.15
2022-11-16T12:47:47.194Z,34.28
2022-11-16T12:49:17.225Z,30.95
2022-11-16T12:50:43.919Z,22.90
2022-11-16T12:52:01.619Z,24.63
2022-11-16T12:53:25.382Z,25.35
2022-11-16T12:55:18.648Z,24.40
2022-11-16T12:56:35.647Z,25.27
2022-11-16T12:58:00.153Z,30.67
2022-11-16T12:59:18.985Z,28.08
2022-11-16T13:00:35.216Z,26.58
2022-11-16T13:02:05.126Z,22.38
2022-11-16T13:03:20.239Z,19.85
2022-11-16T13:04:41.161Z,24.27
2022-11-16T13:05:54.766Z,18.20
2022-11-16T13:07:11.772Z,16.90
2022-11-16T13:08:29.294Z,20.50
2022-11-16T13:09:43.071Z,20.00
2022-11-16T13:10:59.315Z,21.43
2022-11-16T13:12:15.398Z,23.63
2022-11-16T13:13:38.358Z,23.53
2022-11-16T13:14:51.111Z,13.15
2022-11-16T13:16:05.502Z,17.83
2022-11-16T13:17:21.726Z,17.63
2022-11-16T13:18:35.785Z,18.03
2022-11-16T13:19:54.202Z,16.13
2022-11-16T13:21:05.792Z,22.33
2022-11-16T13:22:19.506Z,17.13
2022-11-16T13:23:31.316Z,17.60
2022-11-16T13:24:55.501Z,17.13
2022-11-16T13:26:10.588Z,18.85
2022-11-16T13:27:34.325Z,18.10
2022-11-16T13:28:45.738Z,18.70
2022-11-16T13:30:16.991Z,16.37
2022-11-16T13:31:34.718Z,15.68
2022-11-16T13:32:46.134Z,14.30
2022-11-16T13:34:06.874Z,14.18
2022-11-16T13:35:18.996Z,15.85
2022-11-16T13:36:43.675Z,15.32
2022-11-16T13:37:55.463Z,15.17
2022-11-16T13:39:08.179Z,17.38
2022-11-16T13:40:19.625Z,18.55
2022-11-16T13:41:34.964Z,21.07
2022-11-16T13:43:01.087Z,16.47
2022-11-16T13:44:20.040Z,18.23
2022-11-16T13:45:33.854Z,19.83
2022-11-16T13:46:56.273Z,21.93
2022-11-16T13:48:27.149Z,34.10
2022-11-16T13:49:49.361Z,25.05
2022-11-16T13:51:03.078Z,22.45
2022-11-16T13:52:23.563Z,19.53
2022-11-16T13:55:16.240Z,16.40
2022-11-16T13:56:47.485Z,21.30
2022-11-16T13:58:00.479Z,21.23
2022-11-16T13:59:17.550Z,50.67
2022-11-16T14:00:30.528Z,46.58
2022-11-16T14:01:55.723Z,33.43
2022-11-16T14:03:18.767Z,29.37
2022-11-16T14:04:41.878Z,24.85
2022-11-16T14:05:53.554Z,27.27
2022-11-16T14:07:07.075Z,25.13
2022-11-16T14:08:18.728Z,31.97
2022-11-16T14:09:47.017Z,23.27
2022-11-16T14:10:59.046Z,24.33
2022-11-16T14:12:29.044Z,25.67
2022-11-16T14:13:40.555Z,23.87
2022-11-16T14:15:04.184Z,20.27
2022-11-16T14:16:21.882Z,24.43
2022-11-16T14:17:52.299Z,26.83
2022-11-16T14:19:04.952Z,23.08
2022-11-16T14:20:24.739Z,25.90
2022-11-16T14:21:36.237Z,29.38
2022-11-16T14:23:01.226Z,31.80
2022-11-16T14:24:12.640Z,39.25
2022-11-16T14:25:43.921Z,64.43
2022-11-16T14:27:07.835Z,61.80
2022-11-16T14:28:32.476Z,55.85
2022-11-16T14:30:02.566Z,48.90
2022-11-16T14:31:29.323Z,51.27
2022-11-16T14:32:45.801Z,45.53
2022-11-16T14:33:58.709Z,42.77
2022-11-16T14:35:24.189Z,36.10
2022-11-16T14:36:37.789Z,38.50
2022-11-16T14:37:56.164Z,45.25
2022-11-16T14:39:26.387Z,32.20
2022-11-16T14:40:46.020Z,30.08
2022-11-16T14:41:59.770Z,30.70
2022-11-16T14:43:20.807Z,26.43
2022-11-16T14:44:34.674Z,21.75
2022-11-16T14:45:53.607Z,26.40
2022-11-16T14:47:05.152Z,36.50
2022-11-16T14:48:18.256Z,40.67
2022-11-16T14:49:31.408Z,28.35
2022-11-16T14:50:44.178Z,29.13
2022-11-16T14:51:59.208Z,34.70
2022-11-16T14:53:14.737Z,35.45
2022-11-16T14:54:38.505Z,28.27
2022-11-16T14:55:49.936Z,32.27
2022-11-16T14:57:05.540Z,26.97
2022-11-16T14:58:23.623Z,29.50
2022-11-16T14:59:35.163Z,30.47
2022-11-16T15:00:53.880Z,26.70
2022-11-16T15:02:13.650Z,21.95
2022-11-16T15:03:26.319Z,17.00
2022-11-16T15:04:38.749Z,27.33
2022-11-16T15:05:50.234Z,22.10
2022-11-16T15:07:03.057Z,26.35
2022-11-16T15:08:20.544Z,31.65
2022-11-16T15:09:37.977Z,23.35
2022-11-16T15:10:52.523Z,27.25
2022-11-16T15:12:25.705Z,24.40
2022-11-16T15:13:37.455Z,27.17
2022-11-16T15:14:57.032Z,30.67
2022-11-16T15:16:16.145Z,30.25
2022-11-16T15:17:33.077Z,49.92
2022-11-16T15:19:01.644Z,56.33
2022-11-16T15:20:17.840Z,61.30
2022-11-16T15:21:29.872Z,43.28
2022-11-16T15:22:42.835Z,36.17
2022-11-16T15:24:23.575Z,28.50
2022-11-16T15:25:33.516Z,23.48
2022-11-16T15:26:45.003Z,21.52
2022-11-16T15:27:57.470Z,32.50
2022-11-16T15:29:14.143Z,19.45
2022-11-16T15:30:29.978Z,22.10
2022-11-16T15:31:42.340Z,22.63
2022-11-16T15:32:54.305Z,25.20
2022-11-16T15:34:05.786Z,23.35
2022-11-16T15:35:21.471Z,26.42
2022-11-16T15:36:38.247Z,32.35
2022-11-16T15:38:03.080Z,29.45
2022-11-16T15:39:22.698Z,25.88
2022-11-16T15:40:34.754Z,25.83
2022-11-16T15:41:46.539Z,31.67
2022-11-16T15:43:01.905Z,37.30
2022-11-16T15:44:16.303Z,37.90
2022-11-16T15:45:29.491Z,29.48
2022-11-16T15:46:41.635Z,36.60
2022-11-16T15:47:54.110Z,33.97
2022-11-16T15:49:10.552Z,35.95
2022-11-16T15:50:26.329Z,34.15
2022-11-16T15:51:42.670Z,58.15
2022-11-16T15:52:55.520Z,42.53
2022-11-16T15:54:53.722Z,42.20
2022-11-16T15:56:08.798Z,52.20
2022-11-16T15:57:21.551Z,61.80
2022-11-16T15:58:36.500Z,56.58
2022-11-16T15:59:49.618Z,51.25
2022-11-16T16:01:03.993Z,31.08
2022-11-16T16:02:19.171Z,43.35
2022-11-16T16:03:33.025Z,49.17
2022-11-16T16:04:44.916Z,40.97
2022-11-16T16:05:56.455Z,39.03
2022-11-16T16:07:08.443Z,32.78
2022-11-16T16:08:25.713Z,40.28
2022-11-16T16:09:39.211Z,56.65
2022-11-16T16:10:57.650Z,39.08
2022-11-16T16:12:12.215Z,26.52
2022-11-16T16:13:27.116Z,41.80
2022-11-16T16:14:40.619Z,39.80
2022-11-16T16:16:10.301Z,33.50
2022-11-16T16:17:23.372Z,45.28
2022-11-16T16:18:40.795Z,41.03
2022-11-16T16:19:59.550Z,36.70
2022-11-16T16:21:12.553Z,36.90
2022-11-16T16:22:26.258Z,36.50
2022-11-16T16:23:45.459Z,45.35
2022-11-16T16:24:57.127Z,41.05
2022-11-16T16:26:08.804Z,35.20